Time,TemperatureF,DewpointF,PressureIn,WindDirection,WindDirectionDegrees,WindSpeedMPH,WindSpeedGustMPH,Humidity,HourlyPrecipIn,Conditions,Clouds,dailyrainin,SoftwareType,DateUTC
2013-05-15 00:00:00,54.4,51.5,30.05,ESE,104,0.0,0.0,90,0.00,,---,0.00,VWS V12.07,2013-05-15 04:00:00,
2013-05-15 00:30:00,53.9,51.9,30.04,ESE,104,0.0,0.0,93,0.00,,---,0.00,VWS V12.07,2013-05-15 04:30:00,
2013-05-15 01:00:00,53.2,51.5,30.05,ESE,104,0.0,0.0,94,0.00,,---,0.00,VWS V12.07,2013-05-15 05:00:00,
2013-05-15 01:30:00,52.8,51.4,30.05,ESE,104,0.0,0.0,95,0.00,,---,0.00,VWS V12.07,2013-05-15 05:30:00,
2013-05-15 02:00:00,52.5,51.4,30.05,ESE,104,0.0,0.0,96,0.00,,---,0.00,VWS V12.07,2013-05-15 06:00:00,
2013-05-15 02:30:00,52.0,51.2,30.04,ESE,104,0.0,0.0,97,0.00,,---,0.00,VWS V12.07,2013-05-15 06:30:00,
2013-05-15 03:00:00,51.6,50.8,30.04,ESE,104,0.0,0.0,97,0.00,,---,0.00,VWS V12.07,2013-05-15 07:00:00,
2013-05-15 03:30:00,51.4,50.9,30.05,ESE,104,0.0,0.0,98,0.00,,---,0.00,VWS V12.07,2013-05-15 07:30:00,
2013-05-15 04:30:00,50.8,50.3,30.05,ESE,104,0.0,0.0,98,0.00,,---,0.00,VWS V12.07,2013-05-15 08:30:00,
2013-05-15 05:00:00,50.5,50.0,30.05,ESE,104,0.0,0.0,98,0.00,,---,0.00,VWS V12.07,2013-05-15 09:00:00,
2013-05-15 05:30:00,49.9,49.4,30.06,ESE,104,0.0,0.0,98,0.00,,---,0.00,VWS V12.07,2013-05-15 09:30:00,
2013-05-15 06:00:00,49.6,49.3,30.06,ESE,104,0.0,0.0,99,0.00,,---,0.00,VWS V12.07,2013-05-15 10:00:00,
2013-05-15 06:30:00,49.1,48.8,30.08,ESE,104,0.0,0.0,99,0.00,,---,0.00,VWS V12.07,2013-05-15 10:30:00,
2013-05-15 07:00:00,49.1,48.8,30.09,ESE,104,0.0,0.0,99,0.00,,---,0.00,VWS V12.07,2013-05-15 11:00:00,
2013-05-15 08:00:00,50.5,50.5,30.10,ESE,104,0.0,0.0,100,0.00,,---,0.00,VWS V12.07,2013-05-15 12:00:00,
2013-05-15 09:00:00,55.7,55.7,30.11,ESE,104,0.0,0.0,100,0.00,,---,0.00,VWS V12.07,2013-05-15 13:00:00,
2013-05-15 10:00:00,63.1,55.8,30.10,NNE,27,0.0,1.0,77,0.00,,---,0.00,VWS V12.07,2013-05-15 14:00:00,
2013-05-15 10:30:00,68.6,55.5,30.09,NNE,26,3.0,4.0,63,0.00,,---,0.00,VWS V12.07,2013-05-15 14:30:00,
2013-05-15 11:00:00,70.9,55.4,30.08,North,355,0.0,4.0,58,0.00,,---,0.00,VWS V12.07,2013-05-15 15:00:00,
2013-05-15 12:30:00,75.6,55.1,30.05,NNE,26,3.0,9.0,49,0.00,,---,0.00,VWS V12.07,2013-05-15 16:30:00,
2013-05-15 14:00:00,82.0,54.6,30.00,NNE,30,0.0,1.0,39,0.00,,---,0.00,VWS V12.07,2013-05-15 18:00:00,
2013-05-15 14:30:00,83.4,56.6,29.99,NW,319,0.0,3.0,40,0.00,,---,0.00,VWS V12.07,2013-05-15 18:30:00,
2013-05-15 16:00:00,83.0,53.3,29.95,NNE,24,0.0,5.0,36,0.00,,---,0.00,VWS V12.07,2013-05-15 20:00:00,
2013-05-15 16:30:00,83.6,48.9,29.94,North,5,2.0,7.0,30,0.00,,---,0.00,VWS V12.07,2013-05-15 20:30:00,
2013-05-15 17:00:00,84.0,51.8,29.93,NE,36,4.0,4.0,33,0.00,,---,0.00,VWS V12.07,2013-05-15 21:00:00,
2013-05-15 17:30:00,83.8,53.3,29.93,NNE,17,0.0,3.0,35,0.00,,---,0.00,VWS V12.07,2013-05-15 21:30:00,
2013-05-15 18:00:00,83.0,56.2,29.92,North,9,0.0,1.0,40,0.00,,---,0.00,VWS V12.07,2013-05-15 22:00:00,
2013-05-15 18:30:00,81.1,50.9,29.92,NE,36,3.0,6.0,35,0.00,,---,0.00,VWS V12.07,2013-05-15 22:30:00,
2013-05-15 19:00:00,78.3,52.0,29.92,North,10,0.0,0.0,40,0.00,,---,0.00,VWS V12.07,2013-05-15 23:00:00,
2013-05-15 19:30:00,74.7,55.9,29.93,East,82,0.0,0.0,52,0.00,,---,0.00,VWS V12.07,2013-05-15 23:30:00,
2013-05-15 20:00:00,71.3,54.8,29.94,East,82,0.0,2.0,56,0.00,,---,0.00,VWS V12.07,2013-05-16 00:00:00,
2013-05-15 20:30:00,68.9,55.8,29.93,East,82,0.0,2.0,63,0.00,,---,0.00,VWS V12.07,2013-05-16 00:30:00,
2013-05-15 21:00:00,66.9,54.8,29.94,East,82,0.0,0.0,65,0.00,,---,0.00,VWS V12.07,2013-05-16 01:00:00,
2013-05-15 21:30:00,65.0,53.8,29.94,East,82,0.0,0.0,67,0.00,,---,0.00,VWS V12.07,2013-05-16 01:30:00,
2013-05-15 22:00:00,62.9,54.1,29.95,East,82,0.0,0.0,73,0.00,,---,0.00,VWS V12.07,2013-05-16 02:00:00,
2013-05-15 22:30:00,61.2,54.3,29.95,East,82,0.0,0.0,78,0.00,,---,0.00,VWS V12.07,2013-05-16 02:30:00,
2013-05-15 23:30:00,58.3,54.1,29.96,East,82,0.0,0.0,86,0.00,,---,0.00,VWS V12.07,2013-05-16 03:30:00,